sensor_id;sensor_type;location;lat;lon;timestamp;P1;durP1;ratioP1;P2;durP2;ratioP2
54679;SDS011;40578;53.178;5.846;2023-06-10T00:01:41;18.23;;;7.63;;
54679;SDS011;40578;53.178;5.846;2023-06-10T00:06:34;11.35;;;7.38;;
54679;SDS011;40578;53.178;5.846;2023-06-10T00:09:03;15.02;;;7.10;;
54679;SDS011;40578;53.178;5.846;2023-06-10T00:11:30;11.35;;;6.70;;
54679;SDS011;40578;53.178;5.846;2023-06-10T00:13:59;10.45;;;7.60;;
54679;SDS011;40578;53.178;5.846;2023-06-10T00:16:25;11.38;;;6.65;;
54679;SDS011;40578;53.178;5.846;2023-06-10T00:18:51;12.18;;;6.45;;
54679;SDS011;40578;53.178;5.846;2023-06-10T00:21:17;12.47;;;7.10;;
54679;SDS011;40578;53.178;5.846;2023-06-10T00:23:44;12.82;;;7.18;;
54679;SDS011;40578;53.178;5.846;2023-06-10T00:26:09;13.57;;;7.87;;
54679;SDS011;40578;53.178;5.846;2023-06-10T00:28:35;11.93;;;7.00;;
54679;SDS011;40578;53.178;5.846;2023-06-10T00:31:01;12.33;;;7.57;;
54679;SDS011;40578;53.178;5.846;2023-06-10T00:33:27;11.38;;;6.97;;
54679;SDS011;40578;53.178;5.846;2023-06-10T00:35:53;13.93;;;7.23;;
54679;SDS011;40578;53.178;5.846;2023-06-10T00:38:18;12.63;;;7.07;;
54679;SDS011;40578;53.178;5.846;2023-06-10T00:40:44;12.03;;;6.80;;
54679;SDS011;40578;53.178;5.846;2023-06-10T00:43:10;11.00;;;6.57;;
54679;SDS011;40578;53.178;5.846;2023-06-10T00:45:35;17.83;;;7.00;;
54679;SDS011;40578;53.178;5.846;2023-06-10T00:48:01;12.17;;;7.17;;
54679;SDS011;40578;53.178;5.846;2023-06-10T00:50:28;11.90;;;7.00;;
54679;SDS011;40578;53.178;5.846;2023-06-10T00:52:56;10.85;;;6.82;;
54679;SDS011;40578;53.178;5.846;2023-06-10T00:55:22;10.35;;;6.35;;
54679;SDS011;40578;53.178;5.846;2023-06-10T00:57:49;13.18;;;7.05;;
54679;SDS011;40578;53.178;5.846;2023-06-10T01:02:42;10.75;;;6.50;;
54679;SDS011;40578;53.178;5.846;2023-06-10T01:05:08;13.73;;;7.03;;
54679;SDS011;40578;53.178;5.846;2023-06-10T01:07:43;9.43;;;6.75;;
54679;SDS011;40578;53.178;5.846;2023-06-10T01:13:14;12.95;;;7.03;;
54679;SDS011;40578;53.178;5.846;2023-06-10T01:18:08;11.60;;;6.60;;
54679;SDS011;40578;53.178;5.846;2023-06-10T01:20:36;10.15;;;6.93;;
54679;SDS011;40578;53.178;5.846;2023-06-10T01:23:05;9.55;;;6.68;;
54679;SDS011;40578;53.178;5.846;2023-06-10T01:25:31;12.48;;;7.53;;
54679;SDS011;40578;53.178;5.846;2023-06-10T01:31:17;12.00;;;7.18;;
54679;SDS011;40578;53.178;5.846;2023-06-10T01:33:33;13.80;;;7.25;;
54679;SDS011;40578;53.178;5.846;2023-06-10T01:36:10;12.18;;;6.93;;
54679;SDS011;40578;53.178;5.846;2023-06-10T01:41:10;13.32;;;7.22;;
54679;SDS011;40578;53.178;5.846;2023-06-10T01:43:38;11.60;;;7.50;;
54679;SDS011;40578;53.178;5.846;2023-06-10T01:46:05;11.80;;;6.95;;
54679;SDS011;40578;53.178;5.846;2023-06-10T01:48:31;11.75;;;6.50;;
54679;SDS011;40578;53.178;5.846;2023-06-10T01:50:57;12.95;;;7.30;;
54679;SDS011;40578;53.178;5.846;2023-06-10T01:53:23;15.68;;;7.57;;
54679;SDS011;40578;53.178;5.846;2023-06-10T01:55:49;11.47;;;7.13;;
54679;SDS011;40578;53.178;5.846;2023-06-10T01:58:15;9.95;;;7.20;;
54679;SDS011;40578;53.178;5.846;2023-06-10T02:00:41;12.48;;;7.43;;
54679;SDS011;40578;53.178;5.846;2023-06-10T02:03:07;11.67;;;7.63;;
54679;SDS011;40578;53.178;5.846;2023-06-10T02:05:33;13.97;;;7.27;;
54679;SDS011;40578;53.178;5.846;2023-06-10T02:07:58;11.50;;;7.07;;
54679;SDS011;40578;53.178;5.846;2023-06-10T02:10:24;12.03;;;7.73;;
54679;SDS011;40578;53.178;5.846;2023-06-10T02:12:50;13.63;;;7.67;;
54679;SDS011;40578;53.178;5.846;2023-06-10T02:15:16;16.00;;;7.50;;
54679;SDS011;40578;53.178;5.846;2023-06-10T02:17:41;12.27;;;7.60;;
54679;SDS011;40578;53.178;5.846;2023-06-10T02:20:07;14.33;;;7.23;;
54679;SDS011;40578;53.178;5.846;2023-06-10T02:22:36;13.18;;;7.13;;
54679;SDS011;40578;53.178;5.846;2023-06-10T02:25:02;13.32;;;7.68;;
54679;SDS011;40578;53.178;5.846;2023-06-10T02:29:55;13.93;;;7.85;;
54679;SDS011;40578;53.178;5.846;2023-06-10T02:32:21;12.32;;;7.25;;
54679;SDS011;40578;53.178;5.846;2023-06-10T02:34:47;12.03;;;7.63;;
54679;SDS011;40578;53.178;5.846;2023-06-10T02:37:14;14.02;;;7.60;;
54679;SDS011;40578;53.178;5.846;2023-06-10T02:39:40;10.90;;;7.28;;
54679;SDS011;40578;53.178;5.846;2023-06-10T02:42:06;11.30;;;7.50;;
54679;SDS011;40578;53.178;5.846;2023-06-10T02:44:32;14.45;;;7.78;;
54679;SDS011;40578;53.178;5.846;2023-06-10T02:46:58;13.27;;;7.03;;
54679;SDS011;40578;53.178;5.846;2023-06-10T02:49:23;12.40;;;7.50;;
54679;SDS011;40578;53.178;5.846;2023-06-10T02:51:50;9.77;;;6.80;;
54679;SDS011;40578;53.178;5.846;2023-06-10T02:54:19;11.90;;;6.93;;
54679;SDS011;40578;53.178;5.846;2023-06-10T02:56:45;13.98;;;7.15;;
54679;SDS011;40578;53.178;5.846;2023-06-10T02:59:13;14.43;;;7.43;;
54679;SDS011;40578;53.178;5.846;2023-06-10T03:01:38;10.75;;;7.07;;
54679;SDS011;40578;53.178;5.846;2023-06-10T03:04:05;13.73;;;7.45;;
54679;SDS011;40578;53.178;5.846;2023-06-10T03:06:31;12.50;;;7.30;;
54679;SDS011;40578;53.178;5.846;2023-06-10T03:08:58;10.18;;;7.13;;
54679;SDS011;40578;53.178;5.846;2023-06-10T03:11:29;11.25;;;7.50;;
54679;SDS011;40578;53.178;5.846;2023-06-10T03:13:56;12.13;;;7.18;;
54679;SDS011;40578;53.178;5.846;2023-06-10T03:16:22;10.48;;;7.47;;
54679;SDS011;40578;53.178;5.846;2023-06-10T03:18:48;11.43;;;7.47;;
54679;SDS011;40578;53.178;5.846;2023-06-10T03:21:15;10.13;;;7.03;;
54679;SDS011;40578;53.178;5.846;2023-06-10T03:23:40;11.65;;;7.50;;
54679;SDS011;40578;53.178;5.846;2023-06-10T03:26:06;11.70;;;6.87;;
54679;SDS011;40578;53.178;5.846;2023-06-10T03:28:32;10.68;;;7.68;;
54679;SDS011;40578;53.178;5.846;2023-06-10T03:30:59;11.23;;;7.40;;
54679;SDS011;40578;53.178;5.846;2023-06-10T03:33:24;15.50;;;8.02;;
54679;SDS011;40578;53.178;5.846;2023-06-10T03:35:52;11.88;;;7.93;;
54679;SDS011;40578;53.178;5.846;2023-06-10T03:40:43;12.30;;;7.32;;
54679;SDS011;40578;53.178;5.846;2023-06-10T03:43:09;13.00;;;8.10;;
54679;SDS011;40578;53.178;5.846;2023-06-10T03:45:35;14.13;;;7.72;;
54679;SDS011;40578;53.178;5.846;2023-06-10T03:48:01;10.23;;;7.07;;
54679;SDS011;40578;53.178;5.846;2023-06-10T03:50:28;9.80;;;7.03;;
54679;SDS011;40578;53.178;5.846;2023-06-10T03:52:54;10.90;;;6.88;;
54679;SDS011;40578;53.178;5.846;2023-06-10T03:55:20;12.93;;;7.67;;
54679;SDS011;40578;53.178;5.846;2023-06-10T03:57:49;11.90;;;7.50;;
54679;SDS011;40578;53.178;5.846;2023-06-10T04:00:15;18.27;;;12.75;;
54679;SDS011;40578;53.178;5.846;2023-06-10T04:02:42;12.05;;;7.38;;
54679;SDS011;40578;53.178;5.846;2023-06-10T04:05:13;12.50;;;8.23;;
54679;SDS011;40578;53.178;5.846;2023-06-10T04:10:07;10.40;;;7.00;;
54679;SDS011;40578;53.178;5.846;2023-06-10T04:12:34;12.88;;;7.15;;
54679;SDS011;40578;53.178;5.846;2023-06-10T04:15:00;12.70;;;7.03;;
54679;SDS011;40578;53.178;5.846;2023-06-10T04:17:26;15.25;;;7.55;;
54679;SDS011;40578;53.178;5.846;2023-06-10T04:19:52;10.97;;;7.30;;
54679;SDS011;40578;53.178;5.846;2023-06-10T04:22:18;9.50;;;6.90;;
54679;SDS011;40578;53.178;5.846;2023-06-10T04:24:44;12.70;;;7.07;;
54679;SDS011;40578;53.178;5.846;2023-06-10T04:27:10;10.70;;;6.95;;
54679;SDS011;40578;53.178;5.846;2023-06-10T04:29:36;10.05;;;6.45;;
54679;SDS011;40578;53.178;5.846;2023-06-10T04:32:02;9.37;;;6.73;;
54679;SDS011;40578;53.178;5.846;2023-06-10T04:34:28;13.68;;;6.68;;
54679;SDS011;40578;53.178;5.846;2023-06-10T04:36:53;9.30;;;6.40;;
54679;SDS011;40578;53.178;5.846;2023-06-10T04:39:19;10.37;;;6.33;;
54679;SDS011;40578;53.178;5.846;2023-06-10T04:41:45;10.30;;;6.83;;
54679;SDS011;40578;53.178;5.846;2023-06-10T04:44:11;11.48;;;6.78;;
54679;SDS011;40578;53.178;5.846;2023-06-10T04:46:38;10.90;;;6.40;;
54679;SDS011;40578;53.178;5.846;2023-06-10T04:49:04;15.33;;;6.63;;
54679;SDS011;40578;53.178;5.846;2023-06-10T04:51:30;9.83;;;6.10;;
54679;SDS011;40578;53.178;5.846;2023-06-10T04:53:57;8.77;;;6.00;;
54679;SDS011;40578;53.178;5.846;2023-06-10T04:56:23;12.02;;;6.85;;
54679;SDS011;40578;53.178;5.846;2023-06-10T04:58:49;10.02;;;6.07;;
54679;SDS011;40578;53.178;5.846;2023-06-10T05:01:15;9.38;;;6.50;;
54679;SDS011;40578;53.178;5.846;2023-06-10T05:03:40;10.80;;;6.70;;
54679;SDS011;40578;53.178;5.846;2023-06-10T05:06:06;12.63;;;6.20;;
54679;SDS011;40578;53.178;5.846;2023-06-10T05:08:33;9.50;;;6.07;;
54679;SDS011;40578;53.178;5.846;2023-06-10T05:10:58;10.30;;;6.43;;
54679;SDS011;40578;53.178;5.846;2023-06-10T05:13:24;10.30;;;6.00;;
54679;SDS011;40578;53.178;5.846;2023-06-10T05:15:50;9.77;;;6.10;;
54679;SDS011;40578;53.178;5.846;2023-06-10T05:18:15;10.13;;;6.50;;
54679;SDS011;40578;53.178;5.846;2023-06-10T05:20:41;11.43;;;6.37;;
54679;SDS011;40578;53.178;5.846;2023-06-10T05:23:07;11.13;;;5.60;;
54679;SDS011;40578;53.178;5.846;2023-06-10T05:25:33;10.20;;;6.30;;
54679;SDS011;40578;53.178;5.846;2023-06-10T05:27:58;10.73;;;6.20;;
54679;SDS011;40578;53.178;5.846;2023-06-10T05:30:24;10.52;;;6.40;;
54679;SDS011;40578;53.178;5.846;2023-06-10T05:32:51;11.60;;;6.13;;
54679;SDS011;40578;53.178;5.846;2023-06-10T05:35:18;8.27;;;6.03;;
54679;SDS011;40578;53.178;5.846;2023-06-10T05:37:43;11.38;;;6.30;;
54679;SDS011;40578;53.178;5.846;2023-06-10T05:40:09;10.50;;;6.07;;
54679;SDS011;40578;53.178;5.846;2023-06-10T05:42:35;11.05;;;6.57;;
54679;SDS011;40578;53.178;5.846;2023-06-10T05:45:01;11.23;;;6.73;;
54679;SDS011;40578;53.178;5.846;2023-06-10T05:47:27;11.63;;;6.35;;
54679;SDS011;40578;53.178;5.846;2023-06-10T05:49:53;11.23;;;6.03;;
54679;SDS011;40578;53.178;5.846;2023-06-10T05:52:19;13.13;;;6.83;;
54679;SDS011;40578;53.178;5.846;2023-06-10T05:54:44;12.03;;;6.27;;
54679;SDS011;40578;53.178;5.846;2023-06-10T05:57:10;11.02;;;6.75;;
54679;SDS011;40578;53.178;5.846;2023-06-10T05:59:36;12.43;;;7.07;;
54679;SDS011;40578;53.178;5.846;2023-06-10T06:02:03;12.00;;;7.13;;
54679;SDS011;40578;53.178;5.846;2023-06-10T06:04:29;13.23;;;6.45;;
54679;SDS011;40578;53.178;5.846;2023-06-10T06:06:54;10.63;;;6.93;;
54679;SDS011;40578;53.178;5.846;2023-06-10T06:09:20;11.97;;;7.27;;
54679;SDS011;40578;53.178;5.846;2023-06-10T06:11:46;11.40;;;6.97;;
54679;SDS011;40578;53.178;5.846;2023-06-10T06:14:11;10.83;;;6.93;;
54679;SDS011;40578;53.178;5.846;2023-06-10T06:16:37;10.80;;;6.53;;
54679;SDS011;40578;53.178;5.846;2023-06-10T06:19:03;10.43;;;6.47;;
54679;SDS011;40578;53.178;5.846;2023-06-10T06:21:29;12.37;;;7.07;;
54679;SDS011;40578;53.178;5.846;2023-06-10T06:23:56;11.50;;;7.27;;
54679;SDS011;40578;53.178;5.846;2023-06-10T06:26:22;11.10;;;6.60;;
54679;SDS011;40578;53.178;5.846;2023-06-10T06:28:48;10.17;;;6.47;;
54679;SDS011;40578;53.178;5.846;2023-06-10T06:31:14;12.17;;;6.97;;
54679;SDS011;40578;53.178;5.846;2023-06-10T06:33:39;9.63;;;6.77;;
54679;SDS011;40578;53.178;5.846;2023-06-10T06:36:05;9.53;;;6.30;;
54679;SDS011;40578;53.178;5.846;2023-06-10T06:38:31;10.60;;;7.20;;
54679;SDS011;40578;53.178;5.846;2023-06-10T06:40:59;12.90;;;7.67;;
54679;SDS011;40578;53.178;5.846;2023-06-10T06:43:30;12.43;;;6.75;;
54679;SDS011;40578;53.178;5.846;2023-06-10T06:45:56;11.37;;;6.60;;
54679;SDS011;40578;53.178;5.846;2023-06-10T06:48:23;11.60;;;7.00;;
54679;SDS011;40578;53.178;5.846;2023-06-10T06:50:48;11.57;;;6.53;;
54679;SDS011;40578;53.178;5.846;2023-06-10T06:53:14;10.27;;;6.53;;
54679;SDS011;40578;53.178;5.846;2023-06-10T06:55:40;9.40;;;6.83;;
54679;SDS011;40578;53.178;5.846;2023-06-10T06:58:05;13.47;;;6.53;;
54679;SDS011;40578;53.178;5.846;2023-06-10T07:00:31;11.40;;;6.90;;
54679;SDS011;40578;53.178;5.846;2023-06-10T07:02:57;10.40;;;6.03;;
54679;SDS011;40578;53.178;5.846;2023-06-10T07:05:23;10.82;;;6.53;;
54679;SDS011;40578;53.178;5.846;2023-06-10T07:07:52;10.18;;;6.45;;
54679;SDS011;40578;53.178;5.846;2023-06-10T07:10:23;10.38;;;6.45;;
54679;SDS011;40578;53.178;5.846;2023-06-10T07:12:50;12.60;;;6.60;;
54679;SDS011;40578;53.178;5.846;2023-06-10T07:15:16;10.57;;;7.05;;
54679;SDS011;40578;53.178;5.846;2023-06-10T07:17:42;9.53;;;6.60;;
54679;SDS011;40578;53.178;5.846;2023-06-10T07:20:08;9.88;;;6.50;;
54679;SDS011;40578;53.178;5.846;2023-06-10T07:22:34;12.70;;;7.05;;
54679;SDS011;40578;53.178;5.846;2023-06-10T07:24:59;9.93;;;6.60;;
54679;SDS011;40578;53.178;5.846;2023-06-10T07:27:25;13.10;;;6.30;;
54679;SDS011;40578;53.178;5.846;2023-06-10T07:29:51;9.63;;;5.63;;
54679;SDS011;40578;53.178;5.846;2023-06-10T07:32:16;12.98;;;6.50;;
54679;SDS011;40578;53.178;5.846;2023-06-10T07:34:42;10.97;;;6.03;;
54679;SDS011;40578;53.178;5.846;2023-06-10T07:37:08;10.43;;;5.80;;
54679;SDS011;40578;53.178;5.846;2023-06-10T07:39:34;14.37;;;6.20;;
54679;SDS011;40578;53.178;5.846;2023-06-10T07:41:59;10.80;;;6.10;;
54679;SDS011;40578;53.178;5.846;2023-06-10T07:44:25;9.73;;;6.32;;
54679;SDS011;40578;53.178;5.846;2023-06-10T07:46:51;9.80;;;6.00;;
54679;SDS011;40578;53.178;5.846;2023-06-10T07:49:17;10.13;;;5.83;;
54679;SDS011;40578;53.178;5.846;2023-06-10T07:51:43;10.80;;;5.63;;
54679;SDS011;40578;53.178;5.846;2023-06-10T07:54:08;7.33;;;4.90;;
54679;SDS011;40578;53.178;5.846;2023-06-10T07:56:34;9.40;;;6.07;;
54679;SDS011;40578;53.178;5.846;2023-06-10T07:58:59;10.03;;;6.13;;
54679;SDS011;40578;53.178;5.846;2023-06-10T08:01:25;8.93;;;6.07;;
54679;SDS011;40578;53.178;5.846;2023-06-10T08:03:51;8.00;;;5.87;;
54679;SDS011;40578;53.178;5.846;2023-06-10T08:06:16;11.17;;;6.13;;
54679;SDS011;40578;53.178;5.846;2023-06-10T08:08:42;10.53;;;5.70;;
54679;SDS011;40578;53.178;5.846;2023-06-10T08:11:10;8.52;;;6.00;;
54679;SDS011;40578;53.178;5.846;2023-06-10T08:13:36;9.63;;;5.70;;
54679;SDS011;40578;53.178;5.846;2023-06-10T08:16:02;8.73;;;5.40;;
54679;SDS011;40578;53.178;5.846;2023-06-10T08:18:29;9.70;;;5.30;;
54679;SDS011;40578;53.178;5.846;2023-06-10T08:20:54;9.07;;;5.53;;
54679;SDS011;40578;53.178;5.846;2023-06-10T08:23:20;7.43;;;4.90;;
54679;SDS011;40578;53.178;5.846;2023-06-10T08:25:46;8.30;;;4.87;;
54679;SDS011;40578;53.178;5.846;2023-06-10T08:28:12;9.13;;;5.43;;
54679;SDS011;40578;53.178;5.846;2023-06-10T08:30:37;8.00;;;5.07;;
54679;SDS011;40578;53.178;5.846;2023-06-10T08:33:03;6.67;;;4.80;;
54679;SDS011;40578;53.178;5.846;2023-06-10T08:35:29;7.80;;;4.83;;
54679;SDS011;40578;53.178;5.846;2023-06-10T08:37:57;7.88;;;5.00;;
54679;SDS011;40578;53.178;5.846;2023-06-10T08:40:22;7.68;;;4.80;;
54679;SDS011;40578;53.178;5.846;2023-06-10T08:45:20;8.52;;;5.35;;
54679;SDS011;40578;53.178;5.846;2023-06-10T08:47:49;8.43;;;4.88;;
54679;SDS011;40578;53.178;5.846;2023-06-10T08:50:18;8.93;;;5.25;;
54679;SDS011;40578;53.178;5.846;2023-06-10T08:52:44;6.85;;;4.88;;
54679;SDS011;40578;53.178;5.846;2023-06-10T08:55:17;10.48;;;4.75;;
54679;SDS011;40578;53.178;5.846;2023-06-10T08:57:47;7.65;;;4.90;;
54679;SDS011;40578;53.178;5.846;2023-06-10T09:02:40;8.02;;;5.10;;
54679;SDS011;40578;53.178;5.846;2023-06-10T09:05:07;8.77;;;4.93;;
54679;SDS011;40578;53.178;5.846;2023-06-10T09:07:34;8.13;;;5.22;;
54679;SDS011;40578;53.178;5.846;2023-06-10T09:10:01;8.23;;;5.57;;
54679;SDS011;40578;53.178;5.846;2023-06-10T09:12:32;9.38;;;5.68;;
54679;SDS011;40578;53.178;5.846;2023-06-10T09:14:59;7.72;;;4.85;;
54679;SDS011;40578;53.178;5.846;2023-06-10T09:17:26;6.93;;;4.85;;
54679;SDS011;40578;53.178;5.846;2023-06-10T09:19:53;7.50;;;4.78;;
54679;SDS011;40578;53.178;5.846;2023-06-10T09:22:21;6.07;;;4.85;;
54679;SDS011;40578;53.178;5.846;2023-06-10T09:24:48;9.63;;;5.03;;
54679;SDS011;40578;53.178;5.846;2023-06-10T09:27:14;6.78;;;5.07;;
54679;SDS011;40578;53.178;5.846;2023-06-10T09:29:47;8.55;;;4.85;;
54679;SDS011;40578;53.178;5.846;2023-06-10T09:32:16;7.55;;;4.85;;
54679;SDS011;40578;53.178;5.846;2023-06-10T09:34:44;9.45;;;5.07;;
54679;SDS011;40578;53.178;5.846;2023-06-10T09:37:11;7.15;;;4.40;;
54679;SDS011;40578;53.178;5.846;2023-06-10T09:39:38;8.20;;;4.50;;
54679;SDS011;40578;53.178;5.846;2023-06-10T09:42:15;8.90;;;5.00;;
54679;SDS011;40578;53.178;5.846;2023-06-10T09:44:48;7.70;;;4.80;;
54679;SDS011;40578;53.178;5.846;2023-06-10T09:47:19;8.18;;;5.55;;
54679;SDS011;40578;53.178;5.846;2023-06-10T09:49:45;8.35;;;5.28;;
54679;SDS011;40578;53.178;5.846;2023-06-10T09:52:11;6.57;;;4.43;;
54679;SDS011;40578;53.178;5.846;2023-06-10T09:54:36;7.50;;;4.90;;
54679;SDS011;40578;53.178;5.846;2023-06-10T09:57:06;7.43;;;4.63;;
54679;SDS011;40578;53.178;5.846;2023-06-10T09:59:33;8.10;;;4.95;;
54679;SDS011;40578;53.178;5.846;2023-06-10T10:01:59;6.68;;;4.60;;
54679;SDS011;40578;53.178;5.846;2023-06-10T10:04:25;9.70;;;5.60;;
54679;SDS011;40578;53.178;5.846;2023-06-10T10:06:52;7.88;;;4.80;;
54679;SDS011;40578;53.178;5.846;2023-06-10T10:09:17;7.18;;;4.78;;
54679;SDS011;40578;53.178;5.846;2023-06-10T10:11:43;6.93;;;4.83;;
54679;SDS011;40578;53.178;5.846;2023-06-10T10:16:39;8.13;;;4.28;;
54679;SDS011;40578;53.178;5.846;2023-06-10T10:21:53;7.90;;;4.93;;
54679;SDS011;40578;53.178;5.846;2023-06-10T10:24:29;8.23;;;4.60;;
54679;SDS011;40578;53.178;5.846;2023-06-10T10:26:58;6.80;;;4.35;;
54679;SDS011;40578;53.178;5.846;2023-06-10T10:29:30;6.75;;;4.40;;
54679;SDS011;40578;53.178;5.846;2023-06-10T10:32:00;9.27;;;4.28;;
54679;SDS011;40578;53.178;5.846;2023-06-10T10:36:59;5.68;;;3.78;;
54679;SDS011;40578;53.178;5.846;2023-06-10T10:39:25;6.65;;;4.03;;
54679;SDS011;40578;53.178;5.846;2023-06-10T10:41:53;7.60;;;4.32;;
54679;SDS011;40578;53.178;5.846;2023-06-10T10:44:20;8.57;;;4.40;;
54679;SDS011;40578;53.178;5.846;2023-06-10T10:46:49;7.53;;;4.97;;
54679;SDS011;40578;53.178;5.846;2023-06-10T10:49:15;8.80;;;4.90;;
54679;SDS011;40578;53.178;5.846;2023-06-10T10:51:58;6.75;;;4.40;;
54679;SDS011;40578;53.178;5.846;2023-06-10T10:54:34;7.32;;;3.95;;
54679;SDS011;40578;53.178;5.846;2023-06-10T10:59:46;7.05;;;4.13;;
54679;SDS011;40578;53.178;5.846;2023-06-10T11:04:44;6.55;;;4.85;;
54679;SDS011;40578;53.178;5.846;2023-06-10T11:07:13;9.13;;;4.43;;
54679;SDS011;40578;53.178;5.846;2023-06-10T11:10:01;8.77;;;4.30;;
54679;SDS011;40578;53.178;5.846;2023-06-10T11:15:05;7.72;;;4.38;;
54679;SDS011;40578;53.178;5.846;2023-06-10T11:17:31;6.00;;;3.88;;
54679;SDS011;40578;53.178;5.846;2023-06-10T11:19:58;5.93;;;3.80;;
54679;SDS011;40578;53.178;5.846;2023-06-10T11:22:24;8.85;;;3.80;;
54679;SDS011;40578;53.178;5.846;2023-06-10T11:24:50;5.50;;;4.03;;
54679;SDS011;40578;53.178;5.846;2023-06-10T11:30:27;9.63;;;4.95;;
54679;SDS011;40578;53.178;5.846;2023-06-10T11:32:43;5.82;;;3.97;;
54679;SDS011;40578;53.178;5.846;2023-06-10T11:35:09;7.07;;;3.88;;
54679;SDS011;40578;53.178;5.846;2023-06-10T11:37:35;6.10;;;3.97;;
54679;SDS011;40578;53.178;5.846;2023-06-10T11:40:01;8.90;;;4.20;;
54679;SDS011;40578;53.178;5.846;2023-06-10T11:42:27;9.40;;;3.90;;
54679;SDS011;40578;53.178;5.846;2023-06-10T11:44:54;8.15;;;3.97;;
54679;SDS011;40578;53.178;5.846;2023-06-10T11:47:20;6.60;;;3.75;;
54679;SDS011;40578;53.178;5.846;2023-06-10T11:49:55;6.78;;;3.80;;
54679;SDS011;40578;53.178;5.846;2023-06-10T11:52:39;7.05;;;3.80;;
54679;SDS011;40578;53.178;5.846;2023-06-10T11:55:06;5.07;;;3.50;;
54679;SDS011;40578;53.178;5.846;2023-06-10T11:57:35;7.30;;;3.80;;
54679;SDS011;40578;53.178;5.846;2023-06-10T12:00:05;8.48;;;3.88;;
54679;SDS011;40578;53.178;5.846;2023-06-10T12:02:31;5.85;;;3.58;;
54679;SDS011;40578;53.178;5.846;2023-06-10T12:05:09;6.53;;;3.80;;
54679;SDS011;40578;53.178;5.846;2023-06-10T12:07:37;6.25;;;3.97;;
54679;SDS011;40578;53.178;5.846;2023-06-10T12:10:03;5.53;;;3.60;;
54679;SDS011;40578;53.178;5.846;2023-06-10T12:12:29;4.65;;;3.45;;
54679;SDS011;40578;53.178;5.846;2023-06-10T12:14:55;8.15;;;3.40;;
54679;SDS011;40578;53.178;5.846;2023-06-10T12:20:02;9.38;;;3.78;;
54679;SDS011;40578;53.178;5.846;2023-06-10T12:22:42;7.57;;;5.13;;
54679;SDS011;40578;53.178;5.846;2023-06-10T12:25:09;8.23;;;5.47;;
54679;SDS011;40578;53.178;5.846;2023-06-10T12:27:38;7.97;;;4.97;;
54679;SDS011;40578;53.178;5.846;2023-06-10T12:30:06;8.57;;;5.70;;
54679;SDS011;40578;53.178;5.846;2023-06-10T12:32:39;10.57;;;5.50;;
54679;SDS011;40578;53.178;5.846;2023-06-10T12:35:06;12.63;;;5.32;;
54679;SDS011;40578;53.178;5.846;2023-06-10T12:37:33;9.55;;;4.90;;
54679;SDS011;40578;53.178;5.846;2023-06-10T12:40:00;8.90;;;5.35;;
54679;SDS011;40578;53.178;5.846;2023-06-10T12:42:31;10.80;;;5.78;;
54679;SDS011;40578;53.178;5.846;2023-06-10T12:44:59;14.45;;;5.55;;
54679;SDS011;40578;53.178;5.846;2023-06-10T12:47:36;8.32;;;5.38;;
54679;SDS011;40578;53.178;5.846;2023-06-10T12:50:04;10.52;;;6.43;;
54679;SDS011;40578;53.178;5.846;2023-06-10T12:52:30;12.20;;;6.40;;
54679;SDS011;40578;53.178;5.846;2023-06-10T12:54:57;12.05;;;5.90;;
54679;SDS011;40578;53.178;5.846;2023-06-10T12:57:23;10.18;;;5.80;;
54679;SDS011;40578;53.178;5.846;2023-06-10T12:59:49;14.00;;;6.03;;
54679;SDS011;40578;53.178;5.846;2023-06-10T13:02:18;10.55;;;6.40;;
54679;SDS011;40578;53.178;5.846;2023-06-10T13:04:45;12.20;;;6.78;;
54679;SDS011;40578;53.178;5.846;2023-06-10T13:07:14;9.90;;;6.18;;
54679;SDS011;40578;53.178;5.846;2023-06-10T13:09:40;9.70;;;6.28;;
54679;SDS011;40578;53.178;5.846;2023-06-10T13:12:06;12.27;;;6.70;;
54679;SDS011;40578;53.178;5.846;2023-06-10T13:14:33;10.80;;;6.00;;
54679;SDS011;40578;53.178;5.846;2023-06-10T13:16:58;14.13;;;6.45;;
54679;SDS011;40578;53.178;5.846;2023-06-10T13:19:24;8.80;;;5.70;;
54679;SDS011;40578;53.178;5.846;2023-06-10T13:21:51;11.10;;;6.65;;
54679;SDS011;40578;53.178;5.846;2023-06-10T13:24:17;12.68;;;6.35;;
54679;SDS011;40578;53.178;5.846;2023-06-10T13:26:42;10.68;;;5.93;;
54679;SDS011;40578;53.178;5.846;2023-06-10T13:29:08;12.15;;;6.50;;
54679;SDS011;40578;53.178;5.846;2023-06-10T13:31:38;12.60;;;6.00;;
54679;SDS011;40578;53.178;5.846;2023-06-10T13:34:05;11.20;;;6.30;;
54679;SDS011;40578;53.178;5.846;2023-06-10T13:36:31;10.13;;;6.25;;
54679;SDS011;40578;53.178;5.846;2023-06-10T13:38:57;12.15;;;6.10;;
54679;SDS011;40578;53.178;5.846;2023-06-10T13:41:22;9.77;;;6.10;;
54679;SDS011;40578;53.178;5.846;2023-06-10T13:43:49;9.55;;;5.53;;
54679;SDS011;40578;53.178;5.846;2023-06-10T13:46:15;10.87;;;5.73;;
54679;SDS011;40578;53.178;5.846;2023-06-10T13:48:41;12.07;;;5.05;;
54679;SDS011;40578;53.178;5.846;2023-06-10T13:51:07;10.00;;;5.30;;
54679;SDS011;40578;53.178;5.846;2023-06-10T13:53:34;10.23;;;5.35;;
54679;SDS011;40578;53.178;5.846;2023-06-10T13:56:00;13.82;;;5.90;;
54679;SDS011;40578;53.178;5.846;2023-06-10T13:58:26;8.75;;;5.40;;
54679;SDS011;40578;53.178;5.846;2023-06-10T14:00:51;6.90;;;5.00;;
54679;SDS011;40578;53.178;5.846;2023-06-10T14:03:18;11.20;;;4.95;;
54679;SDS011;40578;53.178;5.846;2023-06-10T14:05:43;8.43;;;4.85;;
54679;SDS011;40578;53.178;5.846;2023-06-10T14:08:09;10.68;;;4.82;;
54679;SDS011;40578;53.178;5.846;2023-06-10T14:10:35;10.18;;;4.90;;
54679;SDS011;40578;53.178;5.846;2023-06-10T14:13:00;6.73;;;4.70;;
54679;SDS011;40578;53.178;5.846;2023-06-10T14:15:26;9.90;;;4.70;;
54679;SDS011;40578;53.178;5.846;2023-06-10T14:17:52;10.00;;;5.03;;
54679;SDS011;40578;53.178;5.846;2023-06-10T14:20:17;6.43;;;4.27;;
54679;SDS011;40578;53.178;5.846;2023-06-10T14:22:43;14.05;;;4.45;;
54679;SDS011;40578;53.178;5.846;2023-06-10T14:25:09;8.93;;;4.43;;
54679;SDS011;40578;53.178;5.846;2023-06-10T14:27:37;10.25;;;4.95;;
54679;SDS011;40578;53.178;5.846;2023-06-10T14:30:03;11.30;;;4.80;;
54679;SDS011;40578;53.178;5.846;2023-06-10T14:32:30;8.73;;;4.93;;
54679;SDS011;40578;53.178;5.846;2023-06-10T14:34:56;10.55;;;5.03;;
54679;SDS011;40578;53.178;5.846;2023-06-10T14:37:22;11.15;;;4.93;;
54679;SDS011;40578;53.178;5.846;2023-06-10T14:39:47;9.80;;;4.60;;
54679;SDS011;40578;53.178;5.846;2023-06-10T14:42:13;10.00;;;4.47;;
54679;SDS011;40578;53.178;5.846;2023-06-10T14:44:39;9.97;;;4.70;;
54679;SDS011;40578;53.178;5.846;2023-06-10T14:47:04;8.05;;;4.55;;
54679;SDS011;40578;53.178;5.846;2023-06-10T14:49:30;9.63;;;4.78;;
54679;SDS011;40578;53.178;5.846;2023-06-10T14:51:56;11.80;;;4.57;;
54679;SDS011;40578;53.178;5.846;2023-06-10T14:54:21;8.57;;;4.60;;
54679;SDS011;40578;53.178;5.846;2023-06-10T14:56:47;10.57;;;4.43;;
54679;SDS011;40578;53.178;5.846;2023-06-10T14:59:13;11.40;;;4.77;;
54679;SDS011;40578;53.178;5.846;2023-06-10T15:01:40;9.73;;;5.03;;
54679;SDS011;40578;53.178;5.846;2023-06-10T15:04:06;10.80;;;4.13;;
54679;SDS011;40578;53.178;5.846;2023-06-10T15:06:31;15.93;;;5.00;;
54679;SDS011;40578;53.178;5.846;2023-06-10T15:08:57;12.37;;;5.07;;
54679;SDS011;40578;53.178;5.846;2023-06-10T15:11:23;9.93;;;4.63;;
54679;SDS011;40578;53.178;5.846;2023-06-10T15:13:48;7.90;;;5.03;;
54679;SDS011;40578;53.178;5.846;2023-06-10T15:16:14;7.38;;;4.65;;
54679;SDS011;40578;53.178;5.846;2023-06-10T15:18:40;8.00;;;4.53;;
54679;SDS011;40578;53.178;5.846;2023-06-10T15:21:05;6.90;;;4.83;;
54679;SDS011;40578;53.178;5.846;2023-06-10T15:23:31;8.00;;;4.43;;
54679;SDS011;40578;53.178;5.846;2023-06-10T15:25:57;12.87;;;4.87;;
54679;SDS011;40578;53.178;5.846;2023-06-10T15:28:23;10.00;;;4.72;;